createdAt,value
2022-08-29T04:03:08.835Z,101428.94
2022-08-29T04:05:36.866Z,101435.41
2022-08-29T04:08:05.264Z,101433.47
2022-08-29T04:10:35.055Z,101432.97
2022-08-29T04:13:03.165Z,101432.56
2022-08-29T04:15:32.417Z,101430.84
2022-08-29T04:18:02.724Z,101422.41
2022-08-29T04:20:34.341Z,101420.25
2022-08-29T04:23:02.967Z,101429.28
2022-08-29T04:25:37.144Z,101428.03
2022-08-29T04:28:06.005Z,101439.44
2022-08-29T04:30:33.738Z,101444.31
2022-08-29T04:33:01.959Z,101432.97
2022-08-29T04:35:29.830Z,101431.53
2022-08-29T04:37:58.819Z,101427.13
2022-08-29T04:40:26.454Z,101440.63
2022-08-29T04:42:54.058Z,101438.34
2022-08-29T04:45:23.889Z,101431.59
2022-08-29T04:47:53.072Z,101433.50
2022-08-29T04:50:22.873Z,101434.16
2022-08-29T04:52:52.209Z,101431.00
2022-08-29T04:55:25.632Z,101425.50
2022-08-29T04:57:56.194Z,101430.78
2022-08-29T05:00:27.985Z,101431.38
2022-08-29T05:02:56.259Z,101439.97
2022-08-29T05:05:23.921Z,101439.34
2022-08-29T05:07:51.505Z,101429.69
2022-08-29T05:10:22.419Z,101433.47
2022-08-29T05:12:50.275Z,101438.03
2022-08-29T05:15:18.567Z,101443.03
2022-08-29T05:17:46.417Z,101448.69
2022-08-29T05:20:14.586Z,101448.03
2022-08-29T05:22:43.535Z,101439.19
2022-08-29T05:25:18.024Z,101445.91
2022-08-29T05:27:47.820Z,101446.75
2022-08-29T05:30:16.323Z,101447.56
2022-08-29T05:32:54.837Z,101443.81
2022-08-29T05:35:22.422Z,101449.31
2022-08-29T05:37:50.022Z,101456.94
2022-08-29T05:40:18.210Z,101456.94
2022-08-29T05:42:47.265Z,101455.66
2022-08-29T05:45:17.438Z,101457.97
2022-08-29T05:47:45.572Z,101463.44
2022-08-29T05:50:13.624Z,101466.78
2022-08-29T05:52:42.004Z,101466.97
2022-08-29T05:55:10.336Z,101474.91
2022-08-29T05:57:38.135Z,101474.31
2022-08-29T06:00:09.296Z,101468.44
2022-08-29T06:02:36.946Z,101461.88
2022-08-29T06:05:05.526Z,101459.09
2022-08-29T06:07:34.039Z,101462.22
2022-08-29T06:10:06.568Z,101467.13
2022-08-29T06:12:34.873Z,101463.03
2022-08-29T06:15:03.048Z,101466.41
2022-08-29T06:17:31.949Z,101458.75
2022-08-29T06:19:59.554Z,101460.47
2022-08-29T06:22:27.139Z,101467.19
2022-08-29T06:24:55.494Z,101473.09
2022-08-29T06:27:25.402Z,101465.06
2022-08-29T06:29:53.090Z,101472.25
2022-08-29T06:32:20.875Z,101484.94
2022-08-29T06:34:50.113Z,101476.91
2022-08-29T06:37:18.099Z,101492.09
2022-08-29T06:39:45.688Z,101487.94
2022-08-29T06:42:13.241Z,101482.88
2022-08-29T06:44:44.383Z,101475.22
2022-08-29T06:47:12.626Z,101473.06
2022-08-29T06:49:40.691Z,101470.25
2022-08-29T06:52:10.773Z,101479.13
2022-08-29T06:54:38.597Z,101483.06
2022-08-29T06:57:06.712Z,101484.53
2022-08-29T06:59:34.357Z,101487.50
2022-08-29T07:02:02.033Z,101485.41
2022-08-29T07:04:30.906Z,101482.81
2022-08-29T07:06:58.517Z,101485.91
2022-08-29T07:09:27.406Z,101488.78
2022-08-29T07:11:54.989Z,101490.69
2022-08-29T07:14:22.867Z,101494.47
2022-08-29T07:16:50.439Z,101494.72
2022-08-29T07:19:18.109Z,101493.59
2022-08-29T07:21:45.764Z,101489.41
2022-08-29T07:24:13.425Z,101489.16
2022-08-29T07:26:44.410Z,101491.44
2022-08-29T07:29:14.589Z,101495.22
2022-08-29T07:31:42.377Z,101499.84
2022-08-29T07:34:10.873Z,101503.59
2022-08-29T07:36:39.257Z,101502.09
2022-08-29T07:39:09.707Z,101509.91
2022-08-29T07:41:38.562Z,101511.75
2022-08-29T07:44:07.537Z,101506.84
2022-08-29T07:46:36.009Z,101506.53
2022-08-29T07:49:03.754Z,101499.28
2022-08-29T07:51:31.462Z,101499.63
2022-08-29T07:53:59.338Z,101504.81
2022-08-29T07:56:29.184Z,101505.47
2022-08-29T07:59:00.150Z,101502.72
2022-08-29T08:01:29.103Z,101504.25
2022-08-29T08:03:56.699Z,101503.91
2022-08-29T08:06:27.486Z,101513.75
2022-08-29T08:08:56.399Z,101515.19
2022-08-29T08:11:25.809Z,101522.97
2022-08-29T08:13:54.421Z,101520.63
2022-08-29T08:16:24.863Z,101521.00
2022-08-29T08:18:54.916Z,101516.91
2022-08-29T08:21:23.250Z,101513.63
2022-08-29T08:23:52.109Z,101522.84
2022-08-29T08:26:20.479Z,101527.25
2022-08-29T08:28:49.115Z,101524.66
2022-08-29T08:31:18.322Z,101519.38
2022-08-29T08:33:47.590Z,101520.84
2022-08-29T08:36:20.368Z,101520.75
2022-08-29T08:38:48.477Z,101527.69
2022-08-29T08:41:30.363Z,101522.44
2022-08-29T08:43:59.824Z,101526.41
2022-08-29T08:46:31.568Z,101522.50
2022-08-29T08:49:01.960Z,101527.03
2022-08-29T08:51:35.776Z,101534.03
2022-08-29T08:54:08.444Z,101535.31
2022-08-29T08:56:40.104Z,101528.75
2022-08-29T08:59:11.377Z,101539.19
2022-08-29T09:01:43.154Z,101531.44
2022-08-29T09:04:36.773Z,101530.75
2022-08-29T09:07:18.196Z,101530.81
2022-08-29T09:10:03.620Z,101534.84
2022-08-29T09:12:45.859Z,101527.84
2022-08-29T09:15:20.681Z,101524.75
2022-08-29T09:17:52.650Z,101532.31
2022-08-29T09:20:23.607Z,101535.16
2022-08-29T09:23:00.619Z,101526.69
2022-08-29T09:25:30.102Z,101522.06
2022-08-29T09:27:59.002Z,101530.00
2022-08-29T09:30:29.034Z,101533.47
2022-08-29T09:33:00.690Z,101537.91
2022-08-29T09:35:33.890Z,101528.56
2022-08-29T09:38:06.832Z,101523.53
2022-08-29T09:40:51.308Z,101530.28
2022-08-29T09:43:24.494Z,101520.72
2022-08-29T09:46:08.736Z,101524.34
2022-08-29T09:48:38.515Z,101517.66
2022-08-29T09:51:12.046Z,101516.25
2022-08-29T09:53:41.833Z,101529.50
2022-08-29T09:56:18.030Z,101527.69
2022-08-29T09:58:45.737Z,101525.91
2022-08-29T10:01:19.236Z,101525.31
2022-08-29T10:03:57.405Z,101528.78
2022-08-29T10:06:29.811Z,101520.22
2022-08-29T10:09:02.687Z,101532.97
2022-08-29T10:11:37.826Z,101528.66
2022-08-29T10:14:12.820Z,101521.03
2022-08-29T10:16:49.476Z,101525.25
2022-08-29T10:19:19.780Z,101520.22
2022-08-29T10:21:59.665Z,101527.38
2022-08-29T10:24:55.003Z,101524.50
2022-08-29T10:27:30.977Z,101521.88
2022-08-29T10:30:11.190Z,101518.53
2022-08-29T10:33:04.549Z,101518.88
2022-08-29T10:35:37.956Z,101520.31
2022-08-29T10:38:15.346Z,101515.03
2022-08-29T10:40:48.540Z,101514.53
2022-08-29T10:43:34.914Z,101515.41
2022-08-29T10:46:13.726Z,101510.72
2022-08-29T10:48:50.112Z,101506.22
2022-08-29T10:51:23.422Z,101515.53
2022-08-29T10:53:56.073Z,101513.47
2022-08-29T10:56:29.212Z,101505.69
2022-08-29T10:59:04.621Z,101507.22
2022-08-29T11:01:37.902Z,101512.31
2022-08-29T11:04:17.500Z,101510.53
2022-08-29T11:06:53.226Z,101503.22
2022-08-29T11:09:26.203Z,101499.16
2022-08-29T11:12:06.484Z,101507.84
2022-08-29T11:14:41.148Z,101498.72
2022-08-29T11:17:12.252Z,101499.97
2022-08-29T11:19:51.113Z,101501.97
2022-08-29T11:22:24.663Z,101503.38
2022-08-29T11:25:02.207Z,101505.47
2022-08-29T11:27:44.873Z,101507.72
2022-08-29T11:30:18.965Z,101504.38
2022-08-29T11:32:57.280Z,101509.41
2022-08-29T11:35:29.844Z,101508.66
2022-08-29T11:38:23.144Z,101502.97
2022-08-29T11:41:31.037Z,101501.91
2022-08-29T11:44:11.813Z,101495.06
2022-08-29T11:46:44.122Z,101498.22
2022-08-29T11:49:37.124Z,101513.81
2022-08-29T11:52:29.998Z,101512.56
2022-08-29T11:55:31.042Z,101507.13
2022-08-29T11:58:05.206Z,101510.06
2022-08-29T12:00:52.231Z,101509.13
2022-08-29T12:03:56.819Z,101500.31
2022-08-29T12:06:57.630Z,101501.81
2022-08-29T12:09:47.044Z,101501.28
2022-08-29T12:12:37.962Z,101499.34
2022-08-29T12:15:47.874Z,101495.84
2022-08-29T12:18:45.111Z,101499.69
2022-08-29T12:21:48.665Z,101493.91
2022-08-29T12:24:33.183Z,101488.72
2022-08-29T12:27:02.234Z,101486.34
2022-08-29T12:29:33.261Z,101478.47
2022-08-29T12:32:31.496Z,101481.47
2022-08-29T12:35:21.205Z,101469.22
2022-08-29T12:38:08.332Z,101465.84
2022-08-29T12:40:51.501Z,101471.88
2022-08-29T12:43:31.877Z,101467.13
2022-08-29T12:45:59.709Z,101458.66
2022-08-29T12:48:34.080Z,101465.25
2022-08-29T12:51:04.641Z,101450.59
2022-08-29T12:53:35.714Z,101449.06
2022-08-29T12:56:13.250Z,101449.13
2022-08-29T12:58:43.657Z,101452.06
2022-08-29T13:01:28.147Z,101446.75
2022-08-29T13:03:57.869Z,101436.72
2022-08-29T13:06:27.303Z,101445.47
2022-08-29T13:08:54.869Z,101438.88
2022-08-29T13:11:25.056Z,101435.56
2022-08-29T13:14:05.010Z,101433.66
2022-08-29T13:16:33.451Z,101431.44
2022-08-29T13:19:10.891Z,101431.94
2022-08-29T13:21:40.647Z,101434.00
2022-08-29T13:24:13.509Z,101430.97
2022-08-29T13:26:50.396Z,101424.63
2022-08-29T13:29:36.853Z,101415.50
2022-08-29T13:32:26.789Z,101413.31
2022-08-29T13:35:02.144Z,101411.06
2022-08-29T13:37:34.276Z,101415.66
2022-08-29T13:40:30.490Z,101408.00
2022-08-29T13:43:00.121Z,101402.97
2022-08-29T13:45:28.558Z,101402.81
2022-08-29T13:48:13.344Z,101401.09
2022-08-29T13:50:41.542Z,101396.38
2022-08-29T13:53:10.579Z,101396.38
2022-08-29T13:55:38.499Z,101394.94
2022-08-29T13:58:06.121Z,101394.94
2022-08-29T14:00:35.501Z,101388.38
2022-08-29T14:03:06.944Z,101388.19
2022-08-29T14:05:35.520Z,101376.59
2022-08-29T14:08:04.095Z,101386.31
2022-08-29T14:10:33.158Z,101378.06
2022-08-29T14:13:00.903Z,101378.69
2022-08-29T14:15:28.507Z,101372.75
2022-08-29T14:17:56.328Z,101373.38
2022-08-29T14:20:25.237Z,101379.00
2022-08-29T14:22:52.812Z,101379.00
2022-08-29T14:25:21.530Z,101370.94
2022-08-29T14:27:50.504Z,101382.59
2022-08-29T14:30:21.137Z,101371.03
2022-08-29T14:32:48.822Z,101367.44
2022-08-29T14:35:25.822Z,101370.75
2022-08-29T14:37:54.611Z,101368.78
2022-08-29T14:40:23.092Z,101363.00
2022-08-29T14:42:57.510Z,101361.03
2022-08-29T14:45:25.228Z,101356.88
2022-08-29T14:47:52.976Z,101364.06
2022-08-29T14:50:21.256Z,101369.81
2022-08-29T14:52:48.840Z,101362.59
2022-08-29T14:55:18.813Z,101364.50
2022-08-29T14:57:49.018Z,101366.13
2022-08-29T15:00:22.554Z,101374.69
2022-08-29T15:02:50.703Z,101360.00
2022-08-29T15:05:18.504Z,101362.25
2022-08-29T15:07:46.903Z,101357.53
2022-08-29T15:10:18.945Z,101351.41
2022-08-29T15:12:46.783Z,101356.13
2022-08-29T15:15:14.745Z,101346.44
2022-08-29T15:17:44.425Z,101351.44
2022-08-29T15:23:01.988Z,101360.75
2022-08-29T15:25:29.639Z,101355.22
2022-08-29T15:27:57.268Z,101353.28
2022-08-29T15:30:26.098Z,101359.34
2022-08-29T15:32:55.000Z,101359.34
2022-08-29T15:35:22.902Z,101361.28
2022-08-29T15:37:50.859Z,101360.97
2022-08-29T15:40:19.341Z,101356.25
2022-08-29T15:42:47.646Z,101356.00
2022-08-29T15:45:15.506Z,101360.16
2022-08-29T15:47:45.992Z,101348.81
2022-08-29T15:50:16.027Z,101352.72
2022-08-29T15:52:43.979Z,101353.81
2022-08-29T15:55:12.729Z,101355.47
2022-08-29T15:57:52.296Z,101354.59
2022-08-29T16:00:30.326Z,101349.31
2022-08-29T16:03:01.462Z,101354.84
2022-08-29T16:05:30.931Z,101356.00
2022-08-29T16:07:58.963Z,101354.38
2022-08-29T16:10:26.878Z,101345.78
2022-08-29T16:12:54.617Z,101347.69
2022-08-29T16:15:23.021Z,101349.31
2022-08-29T16:17:51.278Z,101342.72
2022-08-29T16:20:19.264Z,101341.88
2022-08-29T16:22:51.477Z,101347.97
2022-08-29T16:25:20.154Z,101351.00
2022-08-29T16:27:48.133Z,101339.41
2022-08-29T16:30:16.426Z,101337.41
2022-08-29T16:32:44.768Z,101340.97
2022-08-29T16:35:14.206Z,101332.69
2022-08-29T16:37:41.937Z,101337.63
2022-08-29T16:40:13.188Z,101329.56
2022-08-29T16:42:41.629Z,101334.25
2022-08-29T16:45:24.042Z,101338.63
2022-08-29T16:47:56.794Z,101332.25
2022-08-29T16:50:25.924Z,101322.59
2022-08-29T16:52:54.196Z,101330.03
2022-08-29T16:55:23.725Z,101327.56
2022-08-29T16:58:05.401Z,101323.66
2022-08-29T17:00:33.604Z,101323.91
2022-08-29T17:03:01.524Z,101327.44
2022-08-29T17:05:29.289Z,101340.09
2022-08-29T17:07:55.925Z,101339.50
2022-08-29T17:10:24.089Z,101345.56
2022-08-29T17:12:50.838Z,101343.63
2022-08-29T17:15:17.539Z,101341.09
2022-08-29T17:17:45.285Z,101338.88
2022-08-29T17:20:13.083Z,101338.28
2022-08-29T17:22:40.933Z,101342.16
2022-08-29T17:25:09.800Z,101343.25
2022-08-29T17:27:38.899Z,101338.22
2022-08-29T17:30:07.577Z,101337.06
2022-08-29T17:32:35.361Z,101348.13
2022-08-29T17:35:03.052Z,101346.66
2022-08-29T17:37:35.959Z,101345.53
2022-08-29T17:40:08.631Z,101343.53
2022-08-29T17:42:39.216Z,101343.50
2022-08-29T17:45:07.587Z,101345.69
2022-08-29T17:47:35.374Z,101341.00
2022-08-29T17:50:03.179Z,101347.31
2022-08-29T17:52:31.150Z,101347.31
2022-08-29T17:55:01.639Z,101355.06
2022-08-29T17:57:33.068Z,101360.81
2022-08-29T18:00:02.490Z,101360.50
2022-08-29T18:02:32.006Z,101364.63
2022-08-29T18:04:59.665Z,101355.75
2022-08-29T18:07:28.615Z,101364.56
2022-08-29T18:09:59.091Z,101356.28
2022-08-29T18:12:26.934Z,101362.59
2022-08-29T18:14:54.978Z,101351.78
2022-08-29T18:17:23.969Z,101357.84
2022-08-29T18:19:52.162Z,101350.34
2022-08-29T18:22:20.064Z,101360.53
2022-08-29T18:24:48.105Z,101374.25
2022-08-29T18:27:15.883Z,101366.50
2022-08-29T18:29:45.321Z,101365.41
2022-08-29T18:32:13.164Z,101375.09
2022-08-29T18:34:42.398Z,101373.41
2022-08-29T18:37:10.475Z,101374.25
2022-08-29T18:39:38.288Z,101378.66
2022-08-29T18:42:20.309Z,101382.25
2022-08-29T18:44:55.498Z,101383.34
2022-08-29T18:47:23.368Z,101384.94
2022-08-29T18:50:15.085Z,101385.47
2022-08-29T18:52:42.774Z,101387.06
2022-08-29T18:55:10.490Z,101395.59
2022-08-29T18:57:44.939Z,101396.94
2022-08-29T19:00:14.157Z,101409.75
2022-08-29T19:02:41.857Z,101414.41
2022-08-29T19:05:11.683Z,101405.84
2022-08-29T19:07:39.747Z,101423.06
2022-08-29T19:10:08.326Z,101423.59
2022-08-29T19:12:36.280Z,101425.41
2022-08-29T19:15:08.109Z,101425.38
2022-08-29T19:17:37.730Z,101421.94
2022-08-29T19:20:27.543Z,101419.97
2022-08-29T19:22:56.910Z,101426.19
2022-08-29T19:25:25.123Z,101439.56
2022-08-29T19:27:53.768Z,101443.88
2022-08-29T19:30:21.805Z,101445.97
2022-08-29T19:32:49.851Z,101446.97
2022-08-29T19:35:17.764Z,101448.53
2022-08-29T19:37:45.548Z,101448.47
2022-08-29T19:40:17.398Z,101452.78
2022-08-29T19:42:46.814Z,101453.78
2022-08-29T19:45:18.066Z,101457.28
2022-08-29T19:47:45.945Z,101458.56
2022-08-29T19:50:15.246Z,101461.47
2022-08-29T19:52:43.677Z,101463.31
2022-08-29T19:55:17.536Z,101466.28
2022-08-29T19:57:46.452Z,101464.03
2022-08-29T20:00:17.485Z,101476.34
2022-08-29T20:02:45.954Z,101477.69
2022-08-29T20:05:15.149Z,101478.69
2022-08-29T20:07:44.980Z,101479.38
2022-08-29T20:10:17.791Z,101472.59
2022-08-29T20:12:49.724Z,101476.09
2022-08-29T20:15:17.678Z,101483.38
2022-08-29T20:17:46.589Z,101487.19
2022-08-29T20:20:18.648Z,101479.44
2022-08-29T20:22:47.026Z,101491.50
2022-08-29T20:25:17.166Z,101475.41
2022-08-29T20:27:46.504Z,101484.59
2022-08-29T20:30:17.497Z,101483.31
2022-08-29T20:32:47.770Z,101496.31
2022-08-29T20:35:38.417Z,101500.38
2022-08-29T20:38:05.439Z,101501.09
2022-08-29T20:40:37.519Z,101498.56
2022-08-29T20:43:06.153Z,101495.25
2022-08-29T20:45:34.374Z,101501.09
2022-08-29T20:48:02.807Z,101510.78
2022-08-29T20:50:30.543Z,101515.41
2022-08-29T20:53:00.678Z,101513.59
2022-08-29T20:55:28.668Z,101515.53
2022-08-29T20:57:57.819Z,101515.16
2022-08-29T21:00:25.958Z,101520.88
2022-08-29T21:03:12.322Z,101530.16
2022-08-29T21:05:41.333Z,101530.28
2022-08-29T21:08:10.399Z,101532.19
2022-08-29T21:10:38.710Z,101534.94
2022-08-29T21:13:09.094Z,101537.69
2022-08-29T21:15:37.544Z,101545.28
2022-08-29T21:18:06.238Z,101541.00
2022-08-29T21:20:37.201Z,101545.50
2022-08-29T21:23:13.166Z,101534.19
2022-08-29T21:25:41.176Z,101542.63
2022-08-29T21:28:10.068Z,101538.91
2022-08-29T21:30:40.449Z,101540.50
2022-08-29T21:33:11.197Z,101547.06
2022-08-29T21:35:40.418Z,101546.56
2022-08-29T21:38:08.466Z,101540.66
2022-08-29T21:40:36.725Z,101548.81
2022-08-29T21:43:20.661Z,101547.13
2022-08-29T21:45:48.704Z,101540.88
2022-08-29T21:48:16.630Z,101538.00
2022-08-29T21:50:44.609Z,101545.22
2022-08-29T21:53:12.536Z,101538.78
2022-08-29T21:55:40.111Z,101548.22
2022-08-29T21:58:07.948Z,101549.41
2022-08-29T22:00:42.039Z,101552.78
2022-08-29T22:03:12.214Z,101551.47
2022-08-29T22:05:43.631Z,101556.97
2022-08-29T22:08:13.297Z,101557.56
2022-08-29T22:10:42.752Z,101561.97
2022-08-29T22:13:10.604Z,101558.25
2022-08-29T22:15:57.482Z,101554.06
2022-08-29T22:18:25.097Z,101556.13
2022-08-29T22:20:55.067Z,101559.94
2022-08-29T22:23:24.437Z,101554.69
2022-08-29T22:25:53.743Z,101550.66
2022-08-29T22:28:21.407Z,101558.66
2022-08-29T22:30:50.613Z,101555.66
2022-08-29T22:33:18.448Z,101553.41
2022-08-29T22:35:46.637Z,101548.59
2022-08-29T22:38:14.294Z,101545.84
2022-08-29T22:40:44.193Z,101554.16
2022-08-29T22:43:12.189Z,101542.47
2022-08-29T22:45:41.384Z,101550.53
2022-08-29T22:48:10.852Z,101546.94
2022-08-29T22:50:40.732Z,101557.31
2022-08-29T22:53:14.038Z,101553.81
2022-08-29T22:55:42.087Z,101556.16
2022-08-29T22:58:10.282Z,101563.09
